HTZA

Abeid Amani Karume International Airport

Zanzibar, Tanzania
METAR HTZA 250400Z 17007KT 9999 SCT016 FEW018CB BKN080 25/23 Q1014 NOSIG
Observed Flight Rules
May-25 @ 04:00 UTC (an hour ago) Visual Flight Rules
Wind Visibility Clouds
170° at 7 knots 10,000+ meters
  • Scattered at 1,600' AGL
  • Few at 1,800' AGL
  • Broken at 8,000' AGL
Temperatures Readings
Current 25°C / 77°F
Dewpoint 23°C / 73°F
Humidity 89%
Altimeter 29.94" Hg
Pressure 1014 hPa
Elevation 15
METAR HTZA 250400Z 17007KT 9999 SCT016 FEW018CB BKN080 25/23 Q1014 NOSIG
Observed Flight Rules
May-25 @ 04:00 UTC
(an hour ago)
VFR
Wind Visibility
170° at 7 knots 10,000+ meters
Clouds
  • Scattered at 1,600' AGL
  • Few at 1,800' AGL
  • Broken at 8,000' AGL
Temperature Dewpoint
25°C / 77°F 23°C / 73°F
Humidity Altimeter Pressure
89% 29.94" Hg 1014 hPa